createdAt,value
2019-05-29T00:00:29.141Z,99239.03
2019-05-29T00:03:01.515Z,99236.59
2019-05-29T00:05:33.889Z,99241.25
2019-05-29T00:08:06.451Z,99238.49
2019-05-29T00:10:39.950Z,99247.30
2019-05-29T00:13:12.438Z,99251.09
2019-05-29T00:15:44.875Z,99256.37
2019-05-29T00:18:18.661Z,99251.84
2019-05-29T00:20:51.121Z,99251.64
2019-05-29T00:23:23.502Z,99255.50
2019-05-29T00:25:56.067Z,99260.93
2019-05-29T00:28:28.505Z,99266.72
2019-05-29T00:31:00.951Z,99263.73
2019-05-29T00:33:33.435Z,99269.67
2019-05-29T00:36:06.140Z,99267.59
2019-05-29T00:38:38.851Z,99266.23
2019-05-29T00:41:11.307Z,99267.30
2019-05-29T00:43:43.802Z,99267.43
2019-05-29T00:46:16.179Z,99271.73
2019-05-29T00:48:48.749Z,99269.16
2019-05-29T00:51:21.152Z,99278.19
2019-05-29T00:53:53.553Z,99277.87
2019-05-29T00:56:25.980Z,99284.45
2019-05-29T00:58:58.399Z,99282.36
2019-05-29T01:01:30.774Z,99287.50
2019-05-29T01:04:03.110Z,99286.06
2019-05-29T01:06:35.502Z,99290.55
2019-05-29T01:09:08.565Z,99296.33
2019-05-29T01:11:40.943Z,99304.33
2019-05-29T01:14:15.153Z,99307.58
2019-05-29T01:16:47.676Z,99313.80
2019-05-29T01:19:26.447Z,99316.15
2019-05-29T01:21:58.847Z,99318.52
2019-05-29T01:24:31.237Z,99320.77
2019-05-29T01:27:03.782Z,99331.37
2019-05-29T01:29:36.224Z,99330.08
2019-05-29T01:32:08.698Z,99328.19
2019-05-29T01:34:41.078Z,99326.55
2019-05-29T01:37:14.005Z,99327.19
2019-05-29T01:39:46.496Z,99323.66
2019-05-29T01:42:19.442Z,99326.00
2019-05-29T01:45:06.676Z,99331.14
2019-05-29T01:47:25.988Z,99334.99
2019-05-29T01:49:58.392Z,99336.24
2019-05-29T01:52:30.808Z,99337.34
2019-05-29T01:55:03.197Z,99340.19
2019-05-29T01:57:35.741Z,99342.89
2019-05-29T02:00:08.361Z,99345.48
2019-05-29T02:02:41.040Z,99351.91
2019-05-29T02:05:13.451Z,99353.77
2019-05-29T02:07:45.881Z,99355.22
2019-05-29T02:10:18.499Z,99360.70
2019-05-29T02:12:50.914Z,99358.33
2019-05-29T02:15:32.005Z,99370.13
2019-05-29T02:17:58.474Z,99376.35
2019-05-29T02:20:30.883Z,99379.41
2019-05-29T02:23:03.273Z,99380.81
2019-05-29T02:25:35.609Z,99378.88
2019-05-29T02:28:08.006Z,99380.81
2019-05-29T02:30:40.481Z,99380.52
2019-05-29T02:33:12.880Z,99378.41
2019-05-29T02:35:45.289Z,99380.66
2019-05-29T02:38:18.418Z,99391.73
2019-05-29T02:40:50.965Z,99389.32
2019-05-29T02:43:23.985Z,99395.74
2019-05-29T02:45:57.469Z,99402.42
2019-05-29T02:48:31.628Z,99400.45
2019-05-29T02:51:03.965Z,99402.06
2019-05-29T02:53:36.335Z,99406.72
2019-05-29T02:56:08.751Z,99409.29
2019-05-29T02:58:41.162Z,99408.97
2019-05-29T03:01:13.691Z,99414.06
2019-05-29T03:03:46.132Z,99414.23
2019-05-29T03:06:18.509Z,99419.33
2019-05-29T03:08:54.000Z,99418.01
2019-05-29T03:11:27.100Z,99423.63
2019-05-29T03:13:59.391Z,99424.59
2019-05-29T03:16:32.843Z,99427.73
2019-05-29T03:19:06.876Z,99426.41
2019-05-29T03:21:39.355Z,99433.19
2019-05-29T03:24:11.778Z,99435.75
2019-05-29T03:26:44.193Z,99438.52
2019-05-29T03:29:16.548Z,99440.89
2019-05-29T03:31:50.103Z,99443.91
2019-05-29T03:34:22.502Z,99447.47
2019-05-29T03:36:54.909Z,99451.08
2019-05-29T03:39:28.107Z,99453.05
2019-05-29T03:42:00.447Z,99454.01
2019-05-29T03:44:33.674Z,99458.05
2019-05-29T03:47:07.115Z,99460.79
2019-05-29T03:49:39.522Z,99462.27
2019-05-29T03:52:11.927Z,99464.20
2019-05-29T03:54:44.370Z,99467.69
2019-05-29T03:57:16.757Z,99475.12
2019-05-29T03:59:49.174Z,99480.94
2019-05-29T04:02:21.564Z,99485.07
2019-05-29T04:04:53.988Z,99488.44
2019-05-29T04:07:26.839Z,99490.48
2019-05-29T04:09:59.380Z,99491.13
2019-05-29T04:12:33.486Z,99494.18
2019-05-29T04:15:06.406Z,99494.47
2019-05-29T04:17:39.429Z,99500.08
2019-05-29T04:20:11.848Z,99504.26
2019-05-29T04:22:46.083Z,99509.36
2019-05-29T04:25:18.509Z,99514.82
2019-05-29T04:27:52.409Z,99516.78
2019-05-29T04:30:24.817Z,99510.48
2019-05-29T04:32:57.205Z,99515.53
2019-05-29T04:35:41.097Z,99516.62
2019-05-29T04:38:13.784Z,99522.88
2019-05-29T04:40:46.430Z,99527.86
2019-05-29T04:43:18.852Z,99533.77
2019-05-29T04:45:51.771Z,99539.19
2019-05-29T04:48:24.339Z,99545.73
2019-05-29T04:50:56.866Z,99548.89
2019-05-29T04:53:31.405Z,99557.48
2019-05-29T04:56:04.298Z,99551.47
2019-05-29T04:58:37.077Z,99554.08
2019-05-29T05:01:09.466Z,99560.98
2019-05-29T05:03:41.924Z,99560.78
2019-05-29T05:06:17.397Z,99563.75
2019-05-29T05:08:49.855Z,99563.59
2019-05-29T05:11:22.235Z,99568.56
2019-05-29T05:13:54.617Z,99570.97
2019-05-29T05:16:28.036Z,99575.31
2019-05-29T05:19:00.343Z,99585.06
2019-05-29T05:21:33.943Z,99584.50
2019-05-29T05:24:06.469Z,99590.44
2019-05-29T05:26:38.909Z,99591.92
2019-05-29T05:29:11.294Z,99598.39
2019-05-29T05:31:43.706Z,99604.61
2019-05-29T05:34:16.106Z,99611.35
2019-05-29T05:36:48.530Z,99613.96
2019-05-29T05:39:20.970Z,99622.70
2019-05-29T05:41:53.394Z,99616.21
2019-05-29T05:44:25.782Z,99622.39
2019-05-29T05:46:58.193Z,99632.74
2019-05-29T05:49:31.228Z,99631.67
2019-05-29T05:52:03.675Z,99637.36
2019-05-29T05:54:36.059Z,99639.81
2019-05-29T05:57:08.471Z,99645.67
2019-05-29T05:59:42.063Z,99649.52
2019-05-29T06:02:14.615Z,99652.83
2019-05-29T06:04:47.003Z,99654.91
2019-05-29T06:07:21.005Z,99662.94
2019-05-29T06:09:53.382Z,99665.30
2019-05-29T06:12:26.104Z,99665.38
2019-05-29T06:14:58.496Z,99660.28
2019-05-29T06:17:30.952Z,99660.81
2019-05-29T06:20:03.369Z,99665.63
2019-05-29T06:22:36.932Z,99667.88
2019-05-29T06:25:09.532Z,99670.24
2019-05-29T06:27:43.231Z,99677.95
2019-05-29T06:30:15.693Z,99674.02
2019-05-29T06:32:48.106Z,99682.56
2019-05-29T06:35:20.435Z,99691.13
2019-05-29T06:37:54.081Z,99688.15
2019-05-29T06:40:45.339Z,99684.98
2019-05-29T06:43:26.975Z,99695.27
2019-05-29T06:45:59.359Z,99693.34
2019-05-29T06:48:46.166Z,99699.16
2019-05-29T06:51:05.975Z,99698.23
2019-05-29T06:53:39.713Z,99700.32
2019-05-29T06:56:12.370Z,99699.35
2019-05-29T06:58:48.499Z,99706.47
2019-05-29T07:01:21.158Z,99707.59
2019-05-29T07:04:10.642Z,99711.48
2019-05-29T07:06:27.680Z,99711.33
2019-05-29T07:09:00.266Z,99721.05
2019-05-29T07:11:32.699Z,99725.47
2019-05-29T07:14:05.264Z,99733.58
2019-05-29T07:16:48.894Z,99736.91
2019-05-29T07:19:26.483Z,99742.41
2019-05-29T07:21:47.228Z,99746.95
2019-05-29T07:24:19.938Z,99745.95
2019-05-29T07:26:52.332Z,99749.05
2019-05-29T07:29:26.298Z,99748.77
2019-05-29T07:31:59.263Z,99754.95
2019-05-29T07:34:47.409Z,99755.64
2019-05-29T07:37:06.021Z,99756.52
2019-05-29T07:39:39.449Z,99763.76
2019-05-29T07:42:11.860Z,99760.58
2019-05-29T07:44:44.405Z,99766.25
2019-05-29T07:47:16.829Z,99765.80
2019-05-29T07:49:50.314Z,99767.31
2019-05-29T07:52:22.769Z,99771.50
2019-05-29T07:54:55.283Z,99771.53
2019-05-29T07:57:27.675Z,99775.50
2019-05-29T08:00:00.094Z,99775.62
2019-05-29T08:02:32.552Z,99775.69
2019-05-29T08:05:05.218Z,99777.89
2019-05-29T08:07:37.634Z,99783.67
2019-05-29T08:10:11.604Z,99784.24
2019-05-29T08:12:48.527Z,99781.89
2019-05-29T08:15:18.541Z,99789.03
2019-05-29T08:17:50.997Z,99783.75
2019-05-29T08:20:23.458Z,99783.21
2019-05-29T08:22:55.916Z,99780.52
2019-05-29T08:25:28.347Z,99785.41
2019-05-29T08:28:00.772Z,99787.61
2019-05-29T08:30:33.157Z,99793.94
2019-05-29T08:33:05.596Z,99797.11
2019-05-29T08:35:37.913Z,99800.11
2019-05-29T08:38:10.243Z,99798.53
2019-05-29T08:40:42.996Z,99807.96
2019-05-29T08:43:15.480Z,99806.79
2019-05-29T08:45:48.062Z,99809.93
2019-05-29T08:48:20.533Z,99807.66
2019-05-29T08:50:52.951Z,99804.84
2019-05-29T08:53:25.344Z,99807.23
2019-05-29T08:55:57.749Z,99809.56
2019-05-29T08:58:30.258Z,99808.18
2019-05-29T09:01:02.682Z,99809.53
2019-05-29T09:03:35.077Z,99813.21
2019-05-29T09:06:09.654Z,99811.37
2019-05-29T09:08:43.640Z,99812.15
2019-05-29T09:11:15.809Z,99818.86
2019-05-29T09:13:48.357Z,99829.81
2019-05-29T09:16:21.084Z,99830.78
2019-05-29T09:18:54.971Z,99835.88
2019-05-29T09:21:28.615Z,99840.67
2019-05-29T09:24:01.074Z,99837.35
2019-05-29T09:26:33.474Z,99836.70
2019-05-29T09:29:05.911Z,99840.38
2019-05-29T09:31:38.317Z,99839.91
2019-05-29T09:34:10.734Z,99836.71
2019-05-29T09:36:43.131Z,99840.27
2019-05-29T09:39:16.646Z,99834.89
2019-05-29T09:41:49.652Z,99838.05
2019-05-29T09:44:36.024Z,99837.78
2019-05-29T09:46:56.200Z,99840.69
2019-05-29T09:49:28.589Z,99842.95
2019-05-29T09:52:01.019Z,99841.31
2019-05-29T09:54:34.652Z,99841.03
2019-05-29T09:57:07.165Z,99845.57
2019-05-29T09:59:39.578Z,99843.15
2019-05-29T10:02:12.168Z,99845.77
2019-05-29T10:04:44.664Z,99842.37
2019-05-29T10:07:16.980Z,99845.22
2019-05-29T10:09:49.391Z,99849.85
2019-05-29T10:12:21.789Z,99845.12
2019-05-29T10:14:55.696Z,99850.50
2019-05-29T10:17:28.270Z,99854.55
2019-05-29T10:20:00.822Z,99858.16
2019-05-29T10:22:33.418Z,99850.81
2019-05-29T10:25:06.121Z,99844.46
2019-05-29T10:27:38.590Z,99856.98
2019-05-29T10:30:10.999Z,99853.66
2019-05-29T10:32:44.548Z,99857.57
2019-05-29T10:35:17.414Z,99858.03
2019-05-29T10:37:52.861Z,99863.32
2019-05-29T10:40:27.640Z,99858.39
2019-05-29T10:43:00.069Z,99859.96
2019-05-29T10:45:32.704Z,99856.48
2019-05-29T10:48:05.347Z,99858.19
2019-05-29T10:50:37.758Z,99857.17
2019-05-29T10:53:10.251Z,99856.06
2019-05-29T10:55:42.660Z,99855.86
2019-05-29T10:58:15.112Z,99861.77
2019-05-29T11:00:49.054Z,99864.12
2019-05-29T11:03:21.621Z,99861.95
2019-05-29T11:05:54.049Z,99860.91
2019-05-29T11:08:27.508Z,99864.78
2019-05-29T11:10:59.922Z,99862.21
2019-05-29T11:13:32.317Z,99862.36
2019-05-29T11:16:04.729Z,99864.02
2019-05-29T11:18:37.154Z,99860.67
2019-05-29T11:21:10.579Z,99857.44
2019-05-29T11:23:42.969Z,99854.70
2019-05-29T11:26:15.575Z,99861.64
2019-05-29T11:28:48.369Z,99857.02
2019-05-29T11:31:21.039Z,99858.13
2019-05-29T11:33:54.613Z,99857.44
2019-05-29T11:36:27.509Z,99862.36
2019-05-29T11:39:05.531Z,99861.64
2019-05-29T11:41:34.841Z,99862.88
2019-05-29T11:44:07.242Z,99866.52
2019-05-29T11:46:39.640Z,99871.55
2019-05-29T11:49:12.034Z,99871.23
2019-05-29T11:51:45.651Z,99874.69
2019-05-29T11:54:17.977Z,99871.13
2019-05-29T11:56:51.787Z,99874.55
2019-05-29T11:59:24.540Z,99875.21
2019-05-29T12:01:58.556Z,99873.35
2019-05-29T12:04:31.075Z,99874.28
2019-05-29T12:07:03.482Z,99875.42
2019-05-29T12:09:36.035Z,99875.47
2019-05-29T12:12:08.523Z,99874.83
2019-05-29T12:14:58.956Z,99881.09
2019-05-29T12:17:15.036Z,99872.66
2019-05-29T12:19:47.488Z,99870.92
2019-05-29T12:22:19.904Z,99871.63
2019-05-29T12:24:54.490Z,99874.11
2019-05-29T12:27:26.982Z,99876.23
2019-05-29T12:29:59.366Z,99876.09
2019-05-29T12:32:31.724Z,99872.49
2019-05-29T12:35:04.127Z,99873.78
2019-05-29T12:37:36.530Z,99877.84
2019-05-29T12:40:09.259Z,99868.67
2019-05-29T12:42:44.770Z,99872.28
2019-05-29T12:45:16.594Z,99871.34
2019-05-29T12:47:48.998Z,99866.73
2019-05-29T12:50:21.469Z,99864.64
2019-05-29T12:52:53.930Z,99871.16
2019-05-29T12:55:26.317Z,99868.62
2019-05-29T12:57:59.859Z,99869.81
2019-05-29T13:00:32.378Z,99867.75
2019-05-29T13:03:05.223Z,99874.59
2019-05-29T13:05:37.757Z,99881.05
2019-05-29T13:08:10.168Z,99880.08
2019-05-29T13:10:42.754Z,99884.91
2019-05-29T13:13:15.191Z,99881.77
2019-05-29T13:15:47.589Z,99882.09
2019-05-29T13:18:19.998Z,99887.03
2019-05-29T13:20:52.383Z,99886.67
2019-05-29T13:23:24.886Z,99885.55
2019-05-29T13:25:57.369Z,99886.81
2019-05-29T13:28:29.788Z,99891.65
2019-05-29T13:31:02.171Z,99896.69
2019-05-29T13:33:34.581Z,99885.22
2019-05-29T13:36:07.270Z,99887.67
2019-05-29T13:38:39.890Z,99885.31
2019-05-29T13:41:12.348Z,99884.83
2019-05-29T13:43:44.776Z,99882.17
2019-05-29T13:46:17.204Z,99887.55
2019-05-29T13:48:49.807Z,99889.01
2019-05-29T13:51:22.172Z,99887.69
2019-05-29T13:54:03.637Z,99890.08
2019-05-29T13:56:29.710Z,99889.63
2019-05-29T13:59:02.142Z,99890.78
2019-05-29T14:01:34.764Z,99889.03
2019-05-29T14:04:08.471Z,99892.34
2019-05-29T14:06:41.051Z,99893.53
2019-05-29T14:09:13.472Z,99894.83
2019-05-29T14:11:45.868Z,99893.70
2019-05-29T14:14:18.287Z,99891.55
2019-05-29T14:16:50.734Z,99892.00
2019-05-29T14:19:23.196Z,99894.52
2019-05-29T14:21:55.585Z,99892.88
2019-05-29T14:24:29.941Z,99894.59
2019-05-29T14:27:03.380Z,99892.28
2019-05-29T14:29:35.885Z,99893.70
2019-05-29T14:32:09.184Z,99893.39
2019-05-29T14:34:41.931Z,99899.27
2019-05-29T14:37:15.823Z,99895.36
2019-05-29T14:39:48.250Z,99897.11
2019-05-29T14:42:20.649Z,99891.59
2019-05-29T14:44:53.071Z,99894.81
2019-05-29T14:47:25.506Z,99896.46
2019-05-29T14:49:57.914Z,99898.56
2019-05-29T14:52:30.311Z,99896.66
2019-05-29T14:55:02.919Z,99894.07
2019-05-29T14:57:35.388Z,99894.39
2019-05-29T15:00:19.960Z,99886.64
2019-05-29T15:02:42.453Z,99890.03
2019-05-29T15:05:15.362Z,99892.75
2019-05-29T15:07:47.753Z,99896.44
2019-05-29T15:10:27.041Z,99905.62
2019-05-29T15:12:57.937Z,99904.02
2019-05-29T15:15:29.519Z,99901.44
2019-05-29T15:18:01.974Z,99905.50
2019-05-29T15:20:34.387Z,99902.11
2019-05-29T15:23:07.525Z,99907.25
2019-05-29T15:25:40.114Z,99910.98
2019-05-29T15:28:14.165Z,99910.20
2019-05-29T15:30:46.888Z,99904.37
2019-05-29T15:33:19.277Z,99911.66
2019-05-29T15:35:51.716Z,99911.82
2019-05-29T15:38:25.361Z,99909.69
2019-05-29T15:40:57.794Z,99910.31
2019-05-29T15:43:30.194Z,99907.86
2019-05-29T15:46:02.613Z,99908.28
2019-05-29T15:48:34.995Z,99906.16
2019-05-29T15:51:08.713Z,99913.22
2019-05-29T15:53:41.220Z,99911.61
2019-05-29T15:56:22.773Z,99907.93
2019-05-29T15:58:47.714Z,99907.58
2019-05-29T16:01:20.124Z,99907.58
2019-05-29T16:03:52.598Z,99908.87
2019-05-29T16:06:25.024Z,99907.45
2019-05-29T16:08:57.484Z,99904.84
2019-05-29T16:11:30.203Z,99906.42
2019-05-29T16:14:02.579Z,99905.91
2019-05-29T16:16:35.019Z,99898.74
2019-05-29T16:19:07.488Z,99896.59
2019-05-29T16:21:39.908Z,99898.49
2019-05-29T16:24:12.700Z,99899.11
2019-05-29T16:26:45.349Z,99901.37
2019-05-29T16:29:19.580Z,99903.11
2019-05-29T16:31:51.842Z,99906.34
2019-05-29T16:34:24.233Z,99906.66
2019-05-29T16:36:56.649Z,99912.53
2019-05-29T16:39:29.087Z,99912.50
2019-05-29T16:42:01.531Z,99910.43
2019-05-29T16:44:34.035Z,99913.79
2019-05-29T16:47:06.457Z,99916.05
2019-05-29T16:49:38.884Z,99918.02
2019-05-29T16:52:12.875Z,99919.02
2019-05-29T16:54:45.456Z,99920.59
2019-05-29T16:57:19.128Z,99924.85
2019-05-29T16:59:51.617Z,99923.11
2019-05-29T17:02:24.028Z,99925.59
2019-05-29T17:04:58.324Z,99924.66
2019-05-29T17:07:30.472Z,99926.65
2019-05-29T17:10:02.865Z,99928.30
2019-05-29T17:12:35.341Z,99928.30
2019-05-29T17:15:09.198Z,99930.94
2019-05-29T17:17:41.598Z,99932.42
2019-05-29T17:20:15.066Z,99934.33
2019-05-29T17:22:47.713Z,99929.91
2019-05-29T17:25:20.746Z,99929.42
2019-05-29T17:27:54.219Z,99933.62
2019-05-29T17:30:31.982Z,99937.14
2019-05-29T17:33:04.468Z,99934.72
2019-05-29T17:35:36.928Z,99936.30
2019-05-29T17:38:09.346Z,99939.37
2019-05-29T17:40:41.834Z,99937.34
2019-05-29T17:43:17.495Z,99940.86
2019-05-29T17:45:48.333Z,99941.25
2019-05-29T17:48:23.732Z,99944.73
2019-05-29T17:50:56.413Z,99953.02
2019-05-29T17:53:28.892Z,99955.67
2019-05-29T17:56:01.462Z,99953.00
2019-05-29T17:58:33.844Z,99954.55
2019-05-29T18:01:06.286Z,99958.64
2019-05-29T18:03:39.730Z,99959.51
2019-05-29T18:06:12.145Z,99959.92
2019-05-29T18:08:44.597Z,99962.05
2019-05-29T18:11:17.009Z,99965.85
2019-05-29T18:13:49.786Z,99966.79
2019-05-29T18:16:23.434Z,99965.56
2019-05-29T18:18:56.065Z,99969.52
2019-05-29T18:21:28.474Z,99978.64
2019-05-29T18:24:00.915Z,99976.80
2019-05-29T18:26:45.942Z,99985.31
2019-05-29T18:29:07.712Z,99985.23
2019-05-29T18:31:40.220Z,99987.63
2019-05-29T18:34:12.628Z,99992.58
2019-05-29T18:36:45.032Z,99990.38
2019-05-29T18:39:17.427Z,99992.16
2019-05-29T18:41:50.041Z,99997.56
2019-05-29T18:44:22.801Z,99996.89
2019-05-29T18:46:55.467Z,100004.42
2019-05-29T18:49:28.641Z,99999.36
2019-05-29T18:52:01.226Z,100005.45
2019-05-29T18:54:33.654Z,100006.58
2019-05-29T18:57:15.013Z,100007.02
2019-05-29T18:59:40.487Z,100007.59
2019-05-29T19:02:12.885Z,100012.72
2019-05-29T19:04:45.398Z,100012.67
2019-05-29T19:07:18.939Z,100022.59
2019-05-29T19:09:51.374Z,100027.59
2019-05-29T19:12:23.811Z,100026.48
2019-05-29T19:14:57.393Z,100035.02
2019-05-29T19:17:30.105Z,100040.34
2019-05-29T19:20:02.564Z,100044.33
2019-05-29T19:22:36.931Z,100045.26
2019-05-29T19:25:09.361Z,100055.20
2019-05-29T19:27:42.524Z,100061.42
2019-05-29T19:30:15.084Z,100062.02
2019-05-29T19:32:47.530Z,100069.55
2019-05-29T19:35:20.089Z,100073.02
2019-05-29T19:37:52.475Z,100075.40
2019-05-29T19:40:26.025Z,100079.95
2019-05-29T19:42:58.644Z,100085.55
2019-05-29T19:45:31.049Z,100089.97
2019-05-29T19:48:03.538Z,100089.41
2019-05-29T19:50:36.028Z,100093.68
2019-05-29T19:53:08.653Z,100100.77
2019-05-29T19:55:41.111Z,100103.99
2019-05-29T19:58:13.615Z,100110.31
2019-05-29T20:00:46.025Z,100109.94
2019-05-29T20:03:20.198Z,100111.31
2019-05-29T20:05:52.899Z,100113.80
2019-05-29T20:08:25.324Z,100118.63
2019-05-29T20:10:57.751Z,100120.88
2019-05-29T20:13:30.215Z,100122.20
2019-05-29T20:16:02.609Z,100128.15
2019-05-29T20:18:35.967Z,100130.41
2019-05-29T20:21:08.603Z,100132.37
2019-05-29T20:23:41.059Z,100133.69
2019-05-29T20:26:13.460Z,100131.83
2019-05-29T20:28:45.883Z,100130.12
2019-05-29T20:31:18.272Z,100137.69
2019-05-29T20:33:50.759Z,100139.05
2019-05-29T20:36:23.156Z,100142.87
2019-05-29T20:38:55.638Z,100138.08
2019-05-29T20:41:28.164Z,100143.14
2019-05-29T20:44:00.914Z,100149.64
2019-05-29T20:46:34.860Z,100151.36
2019-05-29T20:49:07.455Z,100153.48
2019-05-29T20:51:40.302Z,100156.17
2019-05-29T20:54:12.842Z,100154.42
2019-05-29T20:56:45.295Z,100153.57
2019-05-29T20:59:17.717Z,100157.32
2019-05-29T21:01:50.118Z,100161.09
2019-05-29T21:04:22.534Z,100166.47
2019-05-29T21:06:54.981Z,100166.81
2019-05-29T21:09:27.397Z,100170.15
2019-05-29T21:11:59.798Z,100171.80
2019-05-29T21:14:33.444Z,100171.76
2019-05-29T21:17:05.999Z,100177.18
2019-05-29T21:19:38.413Z,100173.11
2019-05-29T21:22:11.916Z,100172.37
2019-05-29T21:24:49.706Z,100174.42
2019-05-29T21:27:18.525Z,100175.22
2019-05-29T21:29:51.011Z,100178.06
2019-05-29T21:32:23.407Z,100177.61
2019-05-29T21:34:55.822Z,100174.41
2019-05-29T21:37:28.223Z,100183.64
2019-05-29T21:40:00.568Z,100179.97
2019-05-29T21:42:32.960Z,100182.64
2019-05-29T21:45:05.648Z,100180.91
2019-05-29T21:47:38.966Z,100182.80
2019-05-29T21:50:11.595Z,100187.63
2019-05-29T21:52:44.071Z,100181.94
2019-05-29T21:55:16.498Z,100181.35
2019-05-29T21:57:50.353Z,100191.59
2019-05-29T22:00:31.193Z,100193.21
2019-05-29T22:03:04.866Z,100198.09
2019-05-29T22:05:38.451Z,100197.05
2019-05-29T22:08:10.965Z,100202.61
2019-05-29T22:10:44.038Z,100204.88
2019-05-29T22:13:16.439Z,100209.55
2019-05-29T22:15:48.959Z,100207.41
2019-05-29T22:18:21.378Z,100201.48
2019-05-29T22:20:55.759Z,100199.45
2019-05-29T22:23:27.929Z,100199.77
2019-05-29T22:26:01.584Z,100200.21
2019-05-29T22:28:33.987Z,100200.16
2019-05-29T22:31:07.477Z,100200.20
2019-05-29T22:33:39.920Z,100198.19
2019-05-29T22:36:12.334Z,100199.36
2019-05-29T22:38:44.729Z,100201.98
2019-05-29T22:41:17.205Z,100210.06
2019-05-29T22:43:49.613Z,100207.98
2019-05-29T22:46:22.054Z,100209.13
2019-05-29T22:48:55.770Z,100208.52
2019-05-29T22:51:28.266Z,100213.28
2019-05-29T22:54:02.086Z,100209.45
2019-05-29T22:56:34.526Z,100212.06
2019-05-29T22:59:06.921Z,100210.45
2019-05-29T23:01:40.397Z,100209.97
2019-05-29T23:04:12.892Z,100214.21
2019-05-29T23:06:45.313Z,100213.62
2019-05-29T23:09:17.709Z,100210.78
2019-05-29T23:11:50.165Z,100212.87
2019-05-29T23:14:22.561Z,100211.16
2019-05-29T23:16:54.987Z,100213.84
2019-05-29T23:19:27.479Z,100215.03
2019-05-29T23:22:01.143Z,100213.53
2019-05-29T23:24:33.599Z,100209.18
2019-05-29T23:27:06.073Z,100213.63
2019-05-29T23:29:48.341Z,100213.34
2019-05-29T23:32:12.574Z,100214.70
2019-05-29T23:34:44.979Z,100209.52
2019-05-29T23:37:18.471Z,100214.33
2019-05-29T23:39:50.868Z,100214.04
2019-05-29T23:42:23.287Z,100208.32
2019-05-29T23:44:55.939Z,100208.76
2019-05-29T23:47:28.547Z,100210.98
2019-05-29T23:50:02.761Z,100208.53
2019-05-29T23:52:35.111Z,100199.70
2019-05-29T23:55:07.665Z,100201.24
2019-05-29T23:57:40.084Z,100197.30
